Time;durP1;ratioP1;P1;durP2;ratioP2;P2;SDS_P1;SDS_P2;PMS_P1;PMS_P2;Temp;Humidity;BMP_temperature;BMP_pressure;BME280_temperature;BME280_humidity;BME280_pressure;Samples;Min_cycle;Max_cycle;Signal;HPM_P1;HPM_P2
2022/06/05 00:00:49;;;;;;;1.50;1.50;;;20.40;57.10;;;;;;5013419;28;43463;-62
2022/06/05 00:04:03;;;;;;;2.17;1.73;;;20.40;57.10;;;;;;5022567;28;45006;-61
2022/06/05 00:06:37;;;;;;;1.40;1.38;;;20.40;57.10;;;;;;5002588;28;43537;-62
2022/06/05 00:09:16;;;;;;;3.67;1.90;;;20.30;57.10;;;;;;5019994;28;43416;-62
2022/06/05 00:11:53;;;;;;;1.60;1.50;;;20.30;57.00;;;;;;5020219;28;43549;-62
2022/06/05 00:14:21;;;;;;;2.00;1.77;;;20.30;57.10;;;;;;5006779;28;44010;-62
2022/06/05 00:16:49;;;;;;;1.77;1.67;;;20.30;57.00;;;;;;5009145;28;43988;-62
2022/06/05 00:19:17;;;;;;;1.77;1.67;;;20.30;57.00;;;;;;5010509;28;43978;-62
2022/06/05 00:21:44;;;;;;;1.45;1.38;;;20.30;57.10;;;;;;5020784;28;43459;-61
2022/06/05 00:24:12;;;;;;;1.67;1.58;;;20.30;57.10;;;;;;5006686;28;44774;-61
2022/06/05 00:26:57;;;;;;;1.80;1.70;;;20.30;57.20;;;;;;5010694;28;43509;-61
2022/06/05 00:29:52;;;;;;;1.70;1.60;;;20.30;57.00;;;;;;5018847;28;43558;-61
2022/06/05 00:32:45;;;;;;;2.13;1.73;;;20.30;57.00;;;;;;5003732;28;43586;-61
2022/06/05 00:35:16;;;;;;;1.60;1.50;;;20.30;57.10;;;;;;5013201;28;43866;-61
2022/06/05 00:37:51;;;;;;;;;;;20.30;57.10;;;;;;5019009;28;43526;-61
2022/06/05 00:40:41;;;;;;;1.80;1.70;;;20.30;57.20;;;;;;5024574;28;43502;-61
2022/06/05 00:43:15;;;;;;;1.90;1.80;;;20.30;57.20;;;;;;5025695;28;43529;-62
2022/06/05 00:45:44;;;;;;;1.90;1.80;;;20.30;57.20;;;;;;5015305;28;43636;-61
2022/06/05 00:48:12;;;;;;;1.70;1.60;;;20.30;57.20;;;;;;5022002;28;43998;-61
2022/06/05 00:50:43;;;;;;;1.58;1.48;;;20.20;57.10;;;;;;5015181;28;43482;-61
2022/06/05 00:53:11;;;;;;;1.90;1.80;;;20.20;57.80;;;;;;5030567;28;43494;-62
2022/06/05 00:55:44;;;;;;;1.88;1.77;;;20.20;57.10;;;;;;5015465;28;43794;-61
2022/06/05 00:58:12;;;;;;;1.98;1.75;;;20.20;57.20;;;;;;5021206;28;43751;-61
2022/06/05 01:00:46;;;;;;;1.80;1.70;;;20.20;57.20;;;;;;5020984;28;43476;-61
2022/06/05 01:03:15;;;;;;;1.90;1.80;;;20.20;57.20;;;;;;5016716;28;43490;-61
2022/06/05 01:05:42;;;;;;;1.60;1.50;;;20.20;57.20;;;;;;5018053;28;44319;-61
2022/06/05 01:08:12;;;;;;;1.70;1.60;;;20.20;57.20;;;;;;5025430;28;43718;-62
2022/06/05 01:10:54;;;;;;;1.80;1.70;;;20.20;57.80;;;;;;5015113;28;43537;-61
2022/06/05 01:13:54;;;;;;;2.05;1.95;;;20.20;57.20;;;;;;5013740;28;43454;-61
2022/06/05 01:16:27;;;;;;;1.70;1.60;;;20.20;57.20;;;;;;5015377;28;43861;-61
2022/06/05 01:19:17;;;;;;;1.60;1.50;;;20.20;57.20;;;;;;5011465;28;43421;-61
2022/06/05 01:22:12;;;;;;;1.88;1.77;;;20.10;57.20;;;;;;5011073;28;43482;-61
2022/06/05 01:24:48;;;;;;;2.05;1.60;;;20.10;57.20;;;;;;5017141;28;43582;-61
2022/06/05 01:27:21;;;;;;;2.00;1.90;;;20.10;57.20;;;;;;5019684;28;44966;-62
2022/06/05 01:29:55;;;;;;;1.90;1.80;;;20.10;57.20;;;;;;5008873;28;43679;-60
2022/06/05 01:32:38;;;;;;;1.95;1.73;;;20.10;57.20;;;;;;5013432;28;44087;-61
2022/06/05 01:35:29;;;;;;;2.13;1.90;;;20.10;57.20;;;;;;5020320;28;43998;-61
2022/06/05 01:38:03;;;;;;;1.65;1.58;;;20.10;57.20;;;;;;5013670;28;44929;-62
2022/06/05 01:41:00;;;;;;;2.10;2.00;;;20.10;57.20;;;;;;5012884;28;43530;-61
2022/06/05 01:43:34;;;;;;;1.77;1.67;;;20.10;57.20;;;;;;5026396;28;43418;-61
2022/06/05 01:46:12;;;;;;;1.73;1.63;;;20.10;57.20;;;;;;5023478;28;43442;-62
2022/06/05 01:48:55;;;;;;;1.60;1.50;;;20.10;57.20;;;;;;5011046;28;43962;-60
2022/06/05 01:51:32;;;;;;;1.70;1.60;;;20.10;57.20;;;;;;5017871;28;43611;-61
2022/06/05 01:54:08;;;;;;;1.95;1.85;;;20.10;57.20;;;;;;5023405;28;43386;-61
2022/06/05 01:56:57;;;;;;;1.80;1.70;;;20.00;57.20;;;;;;5009180;28;43557;-61
2022/06/05 01:59:46;;;;;;;1.90;1.80;;;20.00;57.20;;;;;;5014972;28;43800;-61
2022/06/05 02:02:22;;;;;;;1.80;1.70;;;20.00;57.20;;;;;;5022282;28;43542;-61
2022/06/05 02:04:56;;;;;;;1.90;1.80;;;20.00;57.20;;;;;;5018959;28;43463;-62
2022/06/05 02:07:39;;;;;;;1.55;1.52;;;20.00;57.20;;;;;;5012318;28;43441;-62
2022/06/05 02:10:19;;;;;;;1.80;1.70;;;20.00;57.20;;;;;;5020315;28;43810;-61
2022/06/05 02:12:48;;;;;;;1.92;1.83;;;20.00;57.20;;;;;;5024220;28;43525;-61
2022/06/05 02:15:15;;;;;;;1.95;1.80;;;20.00;57.20;;;;;;5014127;28;43543;-61
2022/06/05 02:17:43;;;;;;;1.80;1.70;;;20.00;57.20;;;;;;5016196;28;44004;-61
2022/06/05 02:20:11;;;;;;;2.05;1.88;;;20.00;57.20;;;;;;5017221;28;44051;-61
2022/06/05 02:22:46;;;;;;;1.80;1.70;;;20.00;57.20;;;;;;5017663;28;44290;-61
2022/06/05 02:25:16;;;;;;;1.95;1.85;;;20.00;57.20;;;;;;5010637;28;43493;-61
2022/06/05 02:27:44;;;;;;;1.80;1.70;;;20.00;57.20;;;;;;5017562;28;43433;-61
2022/06/05 02:30:15;;;;;;;2.03;1.90;;;20.00;57.20;;;;;;5019069;28;44626;-61
2022/06/05 02:32:45;;;;;;;1.95;1.85;;;20.00;57.20;;;;;;5015556;28;43448;-61
2022/06/05 02:35:29;;;;;;;1.80;1.70;;;20.00;57.20;;;;;;5013163;28;43496;-61
2022/06/05 02:38:33;;;;;;;1.80;1.70;;;20.00;57.20;;;;;;5014609;28;43423;-61
2022/06/05 02:41:27;;;;;;;1.88;1.77;;;20.00;57.20;;;;;;5017108;28;44692;-61
2022/06/05 02:47:20;;;;;;;2.00;1.90;;;19.90;57.20;;;;;;5013862;28;43472;-61
2022/06/05 02:49:55;;;;;;;2.03;1.92;;;19.90;57.20;;;;;;5021645;28;43498;-61
2022/06/05 02:52:25;;;;;;;1.80;1.70;;;19.90;57.30;;;;;;5015096;28;43945;-61
2022/06/05 02:55:08;;;;;;;1.90;1.80;;;19.90;57.30;;;;;;5016534;28;44022;-61
2022/06/05 02:57:36;;;;;;;2.00;1.90;;;19.90;57.90;;;;;;5017243;28;43543;-61
2022/06/05 03:00:07;;;;;;;2.42;1.60;;;19.90;57.30;;;;;;5015853;28;43545;-61
2022/06/05 03:05:20;;;;;;;1.85;1.70;;;19.90;57.20;;;;;;5014736;28;43503;-61
2022/06/05 03:07:49;;;;;;;1.80;1.70;;;19.90;57.20;;;;;;5021867;28;43411;-61
2022/06/05 03:10:16;;;;;;;1.55;1.50;;;19.90;57.20;;;;;;5014245;28;43640;-61
2022/06/05 03:12:45;;;;;;;1.80;1.70;;;19.90;57.20;;;;;;5014681;28;44633;-61
2022/06/05 03:15:15;;;;;;;1.90;1.80;;;19.90;57.20;;;;;;5021317;28;43554;-61
2022/06/05 03:17:43;;;;;;;1.70;1.60;;;19.90;57.30;;;;;;5011801;28;43528;-61
2022/06/05 03:20:13;;;;;;;2.00;1.90;;;19.90;57.30;;;;;;5013001;28;43439;-61
2022/06/05 03:22:41;;;;;;;1.90;1.80;;;19.90;57.20;;;;;;5015920;28;43789;-61
2022/06/05 03:25:11;;;;;;;1.95;1.80;;;19.90;57.20;;;;;;5016672;28;43445;-62
2022/06/05 03:27:38;;;;;;;2.30;2.10;;;19.90;57.20;;;;;;5014761;28;43422;-62
2022/06/05 03:30:06;;;;;;;2.05;1.95;;;19.90;57.20;;;;;;5009795;28;43581;-61
2022/06/05 03:32:34;;;;;;;1.95;1.85;;;19.90;57.30;;;;;;5016359;28;44052;-61
2022/06/05 03:35:02;;;;;;;1.73;1.63;;;19.90;57.20;;;;;;5018602;28;43507;-62
2022/06/05 03:37:29;;;;;;;2.03;1.85;;;19.90;57.30;;;;;;5015205;28;43475;-62
2022/06/05 03:39:57;;;;;;;1.83;1.73;;;19.80;57.20;;;;;;5011010;28;43488;-62
2022/06/05 03:42:25;;;;;;;1.90;1.80;;;19.80;57.20;;;;;;5024063;28;44725;-62
2022/06/05 03:44:52;;;;;;;1.95;1.85;;;19.80;57.20;;;;;;5020078;28;43444;-62
2022/06/05 03:47:20;;;;;;;1.85;1.75;;;19.80;57.20;;;;;;5015544;28;43420;-61
2022/06/05 03:49:47;;;;;;;1.90;1.75;;;19.80;57.20;;;;;;5012997;28;43500;-61
2022/06/05 03:52:15;;;;;;;1.77;1.67;;;19.80;57.20;;;;;;5017968;28;43783;-62
2022/06/05 03:54:42;;;;;;;2.00;1.90;;;19.80;57.30;;;;;;5017817;28;43710;-62
2022/06/05 03:57:11;;;;;;;2.17;1.90;;;19.80;57.20;;;;;;5014717;28;44154;-61
2022/06/05 03:59:38;;;;;;;1.85;1.75;;;19.80;57.30;;;;;;5016116;28;43503;-61
2022/06/05 04:02:06;;;;;;;2.13;2.00;;;19.80;57.20;;;;;;5018427;28;44165;-62
2022/06/05 04:04:34;;;;;;;2.05;1.95;;;19.80;57.30;;;;;;5018627;28;43755;-62
2022/06/05 04:07:01;;;;;;;1.95;1.85;;;19.80;57.30;;;;;;5008047;28;43401;-62
2022/06/05 04:09:29;;;;;;;2.20;2.00;;;19.80;57.30;;;;;;5019560;28;43641;-61
2022/06/05 04:11:57;;;;;;;2.20;1.90;;;19.70;57.30;;;;;;5023135;28;44814;-61
2022/06/05 04:14:24;;;;;;;2.15;1.95;;;19.80;57.30;;;;;;5009678;28;43963;-62
2022/06/05 04:16:52;;;;;;;2.30;2.10;;;19.70;57.30;;;;;;5013393;28;43475;-62
2022/06/05 04:19:21;;;;;;;2.10;2.00;;;19.80;57.40;;;;;;5021698;28;43647;-62
2022/06/05 04:21:48;;;;;;;1.98;1.88;;;19.80;57.30;;;;;;5023890;28;44049;-62
2022/06/05 04:24:17;;;;;;;1.77;1.67;;;19.80;57.40;;;;;;5010297;28;43486;-61
2022/06/05 04:26:44;;;;;;;2.15;1.90;;;19.70;57.30;;;;;;5015085;28;43523;-62
2022/06/05 04:29:12;;;;;;;1.92;1.83;;;19.70;57.30;;;;;;5022408;28;43526;-61
2022/06/05 04:31:45;;;;;;;1.63;1.52;;;19.70;57.30;;;;;;5023520;28;43940;-62
2022/06/05 04:34:17;;;;;;;1.90;1.80;;;19.80;57.40;;;;;;5010605;28;43406;-62
2022/06/05 04:36:45;;;;;;;2.15;2.05;;;19.70;57.40;;;;;;5017559;28;43578;-62
2022/06/05 04:39:14;;;;;;;1.90;1.80;;;19.70;57.40;;;;;;5023050;28;43598;-61
2022/06/05 04:41:42;;;;;;;2.83;2.28;;;19.70;57.30;;;;;;5026060;28;44041;-61
2022/06/05 04:44:13;;;;;;;2.08;1.98;;;19.70;57.40;;;;;;5028197;28;43494;-61
2022/06/05 04:46:40;;;;;;;;;;;19.70;57.40;;;;;;5021075;28;43498;-62
2022/06/05 04:49:10;;;;;;;2.15;1.95;;;19.70;57.40;;;;;;5023141;28;43546;-62
2022/06/05 04:51:38;;;;;;;2.00;1.90;;;19.70;57.40;;;;;;5022270;28;43780;-61
2022/06/05 04:54:07;;;;;;;2.00;1.90;;;19.70;57.40;;;;;;5019035;28;43737;-62
2022/06/05 04:56:35;;;;;;;2.22;2.03;;;19.70;57.40;;;;;;5053348;28;43490;-61
2022/06/05 04:59:03;;;;;;;2.20;2.10;;;19.70;57.40;;;;;;5023658;28;43940;-61
2022/06/05 05:01:37;;;;;;;2.28;2.13;;;19.70;57.40;;;;;;5009280;28;44975;-61
2022/06/05 05:04:07;;;;;;;2.20;1.98;;;19.70;57.40;;;;;;5014003;28;44012;-62
2022/06/05 05:06:36;;;;;;;1.90;1.80;;;19.70;57.40;;;;;;5021928;28;43440;-61
2022/06/05 05:09:04;;;;;;;2.10;2.00;;;19.70;57.40;;;;;;5013414;28;43509;-62
2022/06/05 05:11:32;;;;;;;2.45;2.25;;;19.70;57.50;;;;;;5010015;28;44724;-62
2022/06/05 05:14:00;;;;;;;2.17;2.08;;;19.70;57.40;;;;;;5016283;28;43614;-61
2022/06/05 05:16:29;;;;;;;2.10;2.00;;;19.70;57.40;;;;;;5022510;28;43499;-62
2022/06/05 05:19:05;;;;;;;2.30;2.10;;;19.70;57.40;;;;;;5022997;28;43479;-61
2022/06/05 05:21:33;;;;;;;1.92;1.83;;;19.70;57.40;;;;;;5010781;28;43791;-62
2022/06/05 05:24:00;;;;;;;2.13;2.03;;;19.70;57.50;;;;;;5018959;28;44051;-62
2022/06/05 05:26:31;;;;;;;2.47;2.28;;;19.70;57.40;;;;;;5022882;28;43474;-61
2022/06/05 05:28:59;;;;;;;2.43;2.20;;;19.70;57.40;;;;;;5009507;28;43606;-62
2022/06/05 05:31:30;;;;;;;2.50;2.20;;;19.70;57.60;;;;;;5010662;28;44127;-62
2022/06/05 05:33:59;;;;;;;2.28;2.08;;;19.60;57.70;;;;;;5012858;28;43715;-62
2022/06/05 05:36:28;;;;;;;2.38;2.17;;;19.60;57.70;;;;;;5023213;28;43470;-62
2022/06/05 05:44:35;;;;;;;2.28;2.17;;;19.70;57.80;;;;;;5021793;28;44039;-62
2022/06/05 05:47:06;;;;;;;2.40;2.20;;;19.60;57.60;;;;;;5018829;28;43427;-62
2022/06/05 05:49:34;;;;;;;2.22;2.13;;;19.70;57.70;;;;;;5011987;28;43518;-62
2022/06/05 05:52:05;;;;;;;3.10;2.28;;;19.60;57.60;;;;;;5018275;28;43569;-62
2022/06/05 05:54:35;;;;;;;2.40;2.20;;;19.70;57.70;;;;;;5019265;28;43681;-62
2022/06/05 05:57:03;;;;;;;2.20;2.08;;;19.70;57.60;;;;;;5014924;28;43442;-62
2022/06/05 05:59:31;;;;;;;2.35;2.15;;;19.70;57.60;;;;;;5016860;28;43554;-62
2022/06/05 06:01:58;;;;;;;2.33;2.20;;;19.70;57.60;;;;;;5020181;28;44720;-62
2022/06/05 06:04:26;;;;;;;2.20;2.10;;;19.70;57.60;;;;;;5019864;28;43959;-62
2022/06/05 06:06:54;;;;;;;2.13;1.92;;;19.60;57.60;;;;;;5009219;28;43429;-62
2022/06/05 06:09:22;;;;;;;2.13;1.98;;;19.70;57.60;;;;;;5019601;28;43439;-62
2022/06/05 06:11:49;;;;;;;2.30;2.20;;;19.70;57.70;;;;;;5021024;28;44040;-62
2022/06/05 06:14:17;;;;;;;2.42;2.22;;;19.70;57.70;;;;;;5021392;28;43659;-62
2022/06/05 06:16:44;;;;;;;2.20;2.10;;;19.70;57.80;;;;;;5010492;28;44098;-62
2022/06/05 06:19:12;;;;;;;2.00;1.90;;;19.70;57.70;;;;;;5019099;28;44174;-62
2022/06/05 06:21:39;;;;;;;2.20;2.00;;;19.70;57.70;;;;;;5022420;28;43797;-62
2022/06/05 06:24:11;;;;;;;2.00;1.90;;;19.70;57.80;;;;;;5008425;28;43541;-62
2022/06/05 06:26:39;;;;;;;2.05;1.95;;;19.70;57.70;;;;;;5044557;28;43516;-62
2022/06/05 06:29:06;;;;;;;2.15;2.05;;;19.70;57.70;;;;;;5020546;28;43462;-62
2022/06/05 06:31:35;;;;;;;2.15;2.03;;;19.70;57.80;;;;;;5022023;28;44088;-62
2022/06/05 06:34:02;;;;;;;2.08;1.98;;;19.70;57.80;;;;;;5020097;28;43517;-63
2022/06/05 06:36:32;;;;;;;1.90;1.80;;;19.70;57.70;;;;;;5014555;28;43971;-62
2022/06/05 06:39:17;;;;;;;2.00;1.90;;;19.70;57.80;;;;;;5021237;28;43400;-62
2022/06/05 06:41:45;;;;;;;2.20;2.10;;;19.70;57.80;;;;;;5022453;28;44738;-62
2022/06/05 06:44:12;;;;;;;2.50;2.10;;;19.70;57.80;;;;;;5017472;28;43585;-62
2022/06/05 06:46:40;;;;;;;2.22;2.00;;;19.70;57.80;;;;;;5014706;28;43510;-62
2022/06/05 06:49:07;;;;;;;2.42;2.22;;;19.70;57.80;;;;;;5018301;28;43503;-62
2022/06/05 06:51:35;;;;;;;2.20;2.10;;;19.70;57.80;;;;;;5007728;28;45115;-62
2022/06/05 06:54:03;;;;;;;2.50;2.30;;;19.70;57.90;;;;;;5010145;28;43463;-62
2022/06/05 06:56:32;;;;;;;2.05;1.95;;;19.70;57.80;;;;;;5018962;28;43422;-62
2022/06/05 06:59:01;;;;;;;2.10;2.00;;;19.70;57.80;;;;;;5021989;28;43696;-62
2022/06/05 07:01:28;;;;;;;2.03;1.92;;;19.70;57.70;;;;;;5007839;28;43788;-62
2022/06/05 07:03:56;;;;;;;2.40;2.20;;;19.70;58.40;;;;;;5011552;28;43392;-62
2022/06/05 07:06:23;;;;;;;2.20;2.10;;;19.70;57.80;;;;;;5020120;28;43402;-62
2022/06/05 07:08:51;;;;;;;2.25;2.15;;;19.70;57.90;;;;;;5023469;28;43570;-62
2022/06/05 07:11:19;;;;;;;2.25;2.00;;;19.70;57.80;;;;;;5008560;28;44985;-62
2022/06/05 07:13:49;;;;;;;2.47;2.28;;;19.70;57.90;;;;;;5010158;28;43533;-62
2022/06/05 07:16:18;;;;;;;2.00;1.90;;;19.70;57.90;;;;;;5020873;28;43497;-63
2022/06/05 07:18:46;;;;;;;2.53;2.33;;;19.70;57.90;;;;;;5023601;28;43467;-62
2022/06/05 07:21:24;;;;;;;2.15;2.05;;;19.70;58.00;;;;;;5008896;28;43807;-62
2022/06/05 07:23:57;;;;;;;2.17;2.03;;;19.70;58.00;;;;;;5016471;28;43450;-62
2022/06/05 07:26:28;;;;;;;2.40;2.20;;;19.70;57.90;;;;;;5021183;28;43462;-62
2022/06/05 07:28:56;;;;;;;2.20;2.10;;;19.80;57.90;;;;;;5008033;28;43490;-62
2022/06/05 07:31:26;;;;;;;2.17;2.08;;;19.80;58.00;;;;;;5009107;28;43996;-62
2022/06/05 07:33:54;;;;;;;2.33;2.17;;;19.80;57.90;;;;;;5016893;28;43957;-62
2022/06/05 07:36:22;;;;;;;2.30;2.20;;;19.80;57.90;;;;;;5021419;28;43487;-62
2022/06/05 07:38:50;;;;;;;2.20;2.10;;;19.80;57.90;;;;;;5007340;28;43712;-61
2022/06/05 07:41:21;;;;;;;2.10;2.00;;;19.80;57.80;;;;;;5009062;28;44038;-62
2022/06/05 07:43:48;;;;;;;;;;;19.80;57.90;;;;;;5025752;28;43462;-61
2022/06/05 07:46:17;;;;;;;2.45;2.35;;;19.80;58.10;;;;;;5025333;28;43416;-62
2022/06/05 07:48:45;;;;;;;2.10;2.00;;;19.80;58.00;;;;;;5011722;28;43628;-62
2022/06/05 07:54:27;;;;;;;2.30;2.10;;;19.80;57.90;;;;;;4995353;28;43669;-62
2022/06/05 07:56:56;;;;;;;2.38;2.28;;;19.80;57.90;;;;;;5015909;28;43401;-62
2022/06/05 07:59:25;;;;;;;2.20;2.10;;;19.80;57.90;;;;;;5019180;28;43728;-62
2022/06/05 08:02:00;;;;;;;2.17;2.08;;;19.80;57.80;;;;;;5025220;28;45096;-62
2022/06/05 08:04:28;;;;;;;2.25;2.15;;;19.90;58.60;;;;;;5021382;28;43415;-62
2022/06/05 08:06:58;;;;;;;2.50;2.13;;;19.90;57.90;;;;;;5011250;28;43447;-62
2022/06/05 08:09:27;;;;;;;2.50;2.30;;;19.90;57.80;;;;;;5021910;28;43523;-62
2022/06/05 08:11:55;;;;;;;2.20;2.10;;;19.90;57.80;;;;;;5021838;28;44677;-62
2022/06/05 08:14:24;;;;;;;2.17;2.03;;;19.90;57.80;;;;;;5022229;28;43515;-62
2022/06/05 08:16:52;;;;;;;2.35;2.17;;;19.90;57.80;;;;;;5011316;28;43431;-62
2022/06/05 08:19:25;;;;;;;2.45;2.35;;;19.90;57.80;;;;;;5021175;28;43618;-62
2022/06/05 08:21:53;;;;;;;2.20;2.10;;;19.90;57.70;;;;;;5021375;28;44990;-62
2022/06/05 08:24:21;;;;;;;2.50;2.28;;;19.90;57.70;;;;;;5009787;28;43867;-62
2022/06/05 08:26:50;;;;;;;2.38;2.28;;;19.90;57.70;;;;;;5014629;28;43433;-63
2022/06/05 08:29:21;;;;;;;2.10;2.00;;;19.90;57.70;;;;;;5022062;28;43471;-62
2022/06/05 08:31:49;;;;;;;;;;;19.90;57.70;;;;;;5021986;28;44039;-62
2022/06/05 08:34:17;;;;;;;2.20;2.10;;;20.00;57.80;;;;;;5010330;28;43509;-62
2022/06/05 08:36:44;;;;;;;2.50;2.30;;;19.90;57.80;;;;;;5017411;28;43415;-62
2022/06/05 08:42:16;;;;;;;3.75;2.60;;;19.90;57.70;;;;;;5015801;28;44093;-60
2022/06/05 08:45:01;;;;;;;2.60;2.40;;;20.00;58.50;;;;;;5020838;28;44061;-62
2022/06/05 08:47:36;;;;;;;2.05;1.95;;;20.00;57.90;;;;;;5019361;28;43524;-62
2022/06/05 08:50:27;;;;;;;2.65;2.45;;;20.00;57.90;;;;;;5038173;28;43518;-62
2022/06/05 08:53:07;;;;;;;2.25;2.10;;;20.00;57.70;;;;;;5012251;28;43803;-62
2022/06/05 08:55:41;;;;;;;2.50;2.30;;;20.00;57.70;;;;;;5013780;28;43530;-62
2022/06/05 08:58:18;;;;;;;2.30;2.20;;;20.00;57.80;;;;;;5020623;28;43475;-62
2022/06/05 09:01:02;;;;;;;2.60;2.40;;;20.00;57.70;;;;;;5012127;28;43535;-62
2022/06/05 09:03:34;;;;;;;2.45;2.25;;;20.00;57.70;;;;;;5012050;28;44164;-62
2022/06/05 09:06:06;;;;;;;2.60;2.40;;;20.00;57.70;;;;;;5019709;28;44095;-63
2022/06/05 09:08:39;;;;;;;2.20;2.10;;;20.10;57.80;;;;;;5024679;28;43383;-62
2022/06/05 09:11:15;;;;;;;2.55;2.35;;;20.00;57.80;;;;;;5011930;28;44027;-62
2022/06/05 09:13:48;;;;;;;3.05;2.40;;;20.10;57.90;;;;;;5014452;28;43954;-63
2022/06/05 09:16:24;;;;;;;2.53;2.40;;;20.10;57.90;;;;;;5022500;28;43364;-62
2022/06/05 09:18:52;;;;;;;2.80;2.60;;;20.10;57.80;;;;;;5024335;28;43382;-62
2022/06/05 09:21:26;;;;;;;2.63;2.42;;;20.10;57.90;;;;;;5010862;28;43507;-62
2022/06/05 09:24:04;;;;;;;2.70;2.50;;;20.10;57.90;;;;;;5018750;28;44674;-62
2022/06/05 09:26:45;;;;;;;2.70;2.50;;;20.10;57.60;;;;;;5020617;28;43508;-63
2022/06/05 09:29:12;;;;;;;2.83;2.63;;;20.20;57.80;;;;;;5017924;28;43483;-63
2022/06/05 09:31:47;;;;;;;2.65;2.50;;;20.20;57.70;;;;;;5013201;28;43520;-62
2022/06/05 09:34:20;;;;;;;2.40;2.30;;;20.30;58.10;;;;;;5020817;28;44724;-64
2022/06/05 09:37:14;;;;;;;2.20;2.10;;;20.30;57.80;;;;;;5018383;28;43493;-62
2022/06/05 09:40:11;;;;;;;2.60;2.40;;;20.30;57.70;;;;;;5010328;28;44077;-62
2022/06/05 09:43:04;;;;;;;2.33;2.10;;;20.40;57.70;;;;;;5025369;28;43490;-63
2022/06/05 09:45:52;;;;;;;2.80;2.60;;;20.40;57.70;;;;;;5014840;28;45152;-62
2022/06/05 09:48:25;;;;;;;2.83;2.63;;;20.40;58.00;;;;;;5012577;28;44056;-62
2022/06/05 09:50:56;;;;;;;2.60;2.50;;;20.40;58.10;;;;;;5021136;28;43438;-62
2022/06/05 09:53:31;;;;;;;2.88;2.67;;;20.40;57.70;;;;;;5022398;28;43450;-62
2022/06/05 09:56:18;;;;;;;3.05;2.80;;;20.40;57.70;;;;;;5013865;28;44108;-62
2022/06/05 09:59:24;;;;;;;2.40;2.30;;;20.50;57.70;;;;;;5010906;28;43491;-62
2022/06/05 10:01:56;;;;;;;2.53;2.40;;;20.50;57.60;;;;;;5004872;28;43464;-63
2022/06/05 10:04:28;;;;;;;3.85;2.78;;;20.50;57.90;;;;;;5018869;28;44117;-62
2022/06/05 10:07:24;;;;;;;2.65;2.45;;;20.50;57.90;;;;;;5007134;28;43816;-62
2022/06/05 10:09:52;;;;;;;3.20;3.00;;;20.50;57.90;;;;;;5019429;28;43735;-62
2022/06/05 10:12:35;;;;;;;2.83;2.63;;;20.50;58.00;;;;;;5018725;28;43623;-62
2022/06/05 10:15:29;;;;;;;2.83;2.60;;;20.50;57.90;;;;;;5014514;28;43455;-63
2022/06/05 10:18:01;;;;;;;2.50;2.40;;;20.60;57.90;;;;;;5045136;28;43816;-62
2022/06/05 10:20:40;;;;;;;2.80;2.60;;;20.60;57.90;;;;;;5017624;28;43479;-62
2022/06/05 10:23:35;;;;;;;2.78;2.58;;;20.60;57.80;;;;;;5017090;28;43558;-63
2022/06/05 10:26:17;;;;;;;2.58;2.47;;;20.60;57.70;;;;;;5012868;28;44122;-62
2022/06/05 10:28:46;;;;;;;2.63;2.42;;;20.60;57.70;;;;;;5024125;28;44070;-62
2022/06/05 10:31:20;;;;;;;2.50;2.40;;;20.60;57.60;;;;;;5021823;28;43727;-62
2022/06/05 10:33:53;;;;;;;2.40;2.30;;;20.60;57.60;;;;;;5008999;28;43463;-62
2022/06/05 10:36:50;;;;;;;2.47;2.38;;;20.70;57.60;;;;;;5016082;28;43535;-63
2022/06/05 10:39:51;;;;;;;2.90;2.70;;;20.70;57.60;;;;;;5020412;28;43816;-62
2022/06/05 10:42:27;;;;;;;2.85;2.65;;;20.70;57.60;;;;;;5022630;28;43475;-62
2022/06/05 10:45:07;;;;;;;2.72;2.53;;;20.70;57.60;;;;;;5017734;28;43407;-62
2022/06/05 10:47:56;;;;;;;2.65;2.45;;;20.70;57.50;;;;;;5008100;28;43474;-62
2022/06/05 10:50:53;;;;;;;2.47;2.38;;;20.70;57.50;;;;;;5014110;28;44691;-62
2022/06/05 10:53:33;;;;;;;2.70;2.50;;;20.70;57.60;;;;;;5007314;28;43478;-62
2022/06/05 10:56:19;;;;;;;2.60;2.50;;;20.80;57.50;;;;;;5014952;28;43546;-62
2022/06/05 10:59:16;;;;;;;2.75;2.55;;;20.80;57.60;;;;;;5016235;28;43522;-62
2022/06/05 11:01:54;;;;;;;2.58;2.38;;;20.80;57.50;;;;;;5006949;28;44033;-62
2022/06/05 11:04:42;;;;;;;2.60;2.40;;;20.80;58.30;;;;;;5014190;28;43465;-62
2022/06/05 11:07:15;;;;;;;2.30;2.20;;;20.80;57.60;;;;;;5018017;28;43437;-62
2022/06/05 11:09:54;;;;;;;3.03;2.80;;;20.80;57.50;;;;;;5017735;28;43541;-62
2022/06/05 11:15:57;;;;;;;2.80;2.60;;;20.80;57.50;;;;;;5016688;28;43452;-62
2022/06/05 11:18:27;;;;;;;2.60;2.40;;;20.80;57.60;;;;;;5023032;28;43451;-62
2022/06/05 11:20:58;;;;;;;2.65;2.45;;;20.80;57.50;;;;;;5009990;28;43514;-63
2022/06/05 11:23:34;;;;;;;2.70;2.55;;;20.80;57.50;;;;;;5012172;28;45000;-62
2022/06/05 11:26:09;;;;;;;2.50;2.30;;;20.80;57.50;;;;;;5021056;28;43744;-62
2022/06/05 11:28:50;;;;;;;2.58;2.47;;;20.80;57.60;;;;;;5023208;28;43475;-62
2022/06/05 11:31:36;;;;;;;2.85;2.65;;;20.80;57.70;;;;;;5009391;28;43561;-62
2022/06/05 11:34:52;;;;;;;2.90;2.70;;;20.90;57.70;;;;;;5045010;28;44147;-62
2022/06/05 11:37:39;;;;;;;2.95;2.75;;;20.90;57.60;;;;;;4990012;28;43466;-62
2022/06/05 11:40:09;;;;;;;2.88;2.67;;;20.90;57.70;;;;;;5013853;28;43482;-62
2022/06/05 11:43:01;;;;;;;2.90;2.70;;;20.90;57.70;;;;;;5018536;28;43482;-62
2022/06/05 11:45:44;;;;;;;2.75;2.50;;;20.90;57.70;;;;;;5012736;28;44067;-62
2022/06/05 11:48:22;;;;;;;3.00;2.80;;;20.90;57.70;;;;;;5011261;28;43543;-62
2022/06/05 11:51:02;;;;;;;3.08;2.88;;;20.90;57.70;;;;;;5011139;28;43514;-62
2022/06/05 11:53:49;;;;;;;2.92;2.70;;;20.90;57.60;;;;;;5012337;28;43431;-62
2022/06/05 11:56:31;;;;;;;2.97;2.78;;;20.90;57.60;;;;;;5021512;28;44043;-61
2022/06/05 11:59:10;;;;;;;2.88;2.67;;;20.90;57.60;;;;;;5015302;28;43978;-62
2022/06/05 12:01:44;;;;;;;3.17;2.97;;;20.90;57.60;;;;;;5012100;28;43489;-62
2022/06/05 12:04:46;;;;;;;3.10;2.90;;;20.90;57.60;;;;;;5005795;28;43452;-62
2022/06/05 12:07:15;;;;;;;3.05;2.85;;;21.00;57.50;;;;;;4989303;28;44674;-62
2022/06/05 12:10:08;;;;;;;3.00;2.80;;;20.90;57.50;;;;;;5018459;28;44034;-62
2022/06/05 12:12:37;;;;;;;2.60;2.40;;;21.00;57.50;;;;;;5019094;28;43543;-62
2022/06/05 12:15:14;;;;;;;2.88;2.67;;;20.90;57.50;;;;;;5012418;28;43395;-62
2022/06/05 12:17:49;;;;;;;3.05;2.80;;;21.00;57.50;;;;;;5010878;28;44976;-62
2022/06/05 12:20:44;;;;;;;2.75;2.63;;;21.00;57.50;;;;;;5014277;28;43480;-62
2022/06/05 12:23:28;;;;;;;2.95;2.75;;;21.00;57.40;;;;;;5022347;28;43441;-62
2022/06/05 12:25:57;;;;;;;3.28;2.97;;;21.00;57.40;;;;;;5008874;28;43530;-62
2022/06/05 12:28:45;;;;;;;2.80;2.60;;;21.00;57.50;;;;;;5012306;28;44720;-62
2022/06/05 12:31:31;;;;;;;2.85;2.65;;;21.00;57.50;;;;;;5023386;28;43476;-62
2022/06/05 12:34:02;;;;;;;2.83;2.63;;;21.00;57.40;;;;;;5009146;28;43438;-62
2022/06/05 12:36:36;;;;;;;2.95;2.75;;;21.00;57.40;;;;;;5012811;28;43501;-62
2022/06/05 12:39:37;;;;;;;2.70;2.50;;;21.10;57.50;;;;;;5020411;28;44674;-62
2022/06/05 12:42:23;;;;;;;;;;;21.00;57.40;;;;;;5011416;28;43573;-62
2022/06/05 12:44:55;;;;;;;2.95;2.75;;;21.00;57.60;;;;;;5016336;28;43539;-62
2022/06/05 12:48:00;;;;;;;2.58;2.42;;;21.00;57.70;;;;;;5016064;28;44050;-62
2022/06/05 12:50:58;;;;;;;3.30;3.08;;;21.10;57.60;;;;;;5015996;28;43836;-62
2022/06/05 12:53:32;;;;;;;2.63;2.53;;;21.00;57.50;;;;;;5012162;28;43455;-62
2022/06/05 12:56:07;;;;;;;3.10;2.80;;;21.10;57.50;;;;;;5015129;28;43418;-62
2022/06/05 12:58:55;;;;;;;2.80;2.60;;;21.10;57.50;;;;;;5020808;28;43558;-62
2022/06/05 13:01:42;;;;;;;2.70;2.60;;;21.10;57.50;;;;;;5008626;28;44048;-62
2022/06/05 13:04:16;;;;;;;3.00;2.80;;;21.10;57.80;;;;;;5014896;28;44009;-62
2022/06/05 13:06:57;;;;;;;2.80;2.60;;;21.10;57.80;;;;;;5016419;28;43465;-62
2022/06/05 13:09:47;;;;;;;3.20;3.00;;;21.10;57.80;;;;;;5020980;28;43479;-62
2022/06/05 13:12:34;;;;;;;2.83;2.63;;;21.10;57.60;;;;;;5010520;28;44039;-62
2022/06/05 13:15:32;;;;;;;3.05;2.80;;;21.10;57.60;;;;;;5015481;28;43501;-62
2022/06/05 13:18:34;;;;;;;3.28;3.00;;;21.20;57.80;;;;;;5016092;28;43381;-61
2022/06/05 13:21:16;;;;;;;3.30;2.97;;;21.10;57.80;;;;;;5010166;28;43626;-62
2022/06/05 13:24:04;;;;;;;2.70;2.58;;;21.10;57.80;;;;;;5015877;28;43798;-62
2022/06/05 13:27:03;;;;;;;3.00;2.70;;;21.20;57.90;;;;;;5022292;28;43490;-62
2022/06/05 13:30:02;;;;;;;3.08;2.88;;;21.20;57.90;;;;;;5008332;28;43521;-62
2022/06/05 13:32:47;;;;;;;3.20;3.00;;;21.20;57.90;;;;;;5014292;28;43450;-62
2022/06/05 13:35:20;;;;;;;2.90;2.70;;;21.20;57.90;;;;;;5020669;28;44992;-62
2022/06/05 13:37:53;;;;;;;3.10;2.90;;;21.20;57.70;;;;;;5012493;28;43403;-62
2022/06/05 13:40:29;;;;;;;3.10;2.80;;;21.20;57.90;;;;;;5011697;28;44038;-61
2022/06/05 13:42:57;;;;;;;3.17;2.97;;;21.20;57.80;;;;;;5018987;28;43594;-62
2022/06/05 13:45:46;;;;;;;2.90;2.70;;;21.20;57.80;;;;;;5021880;28;44811;-62
2022/06/05 13:48:29;;;;;;;3.00;2.80;;;21.20;57.80;;;;;;5012361;28;43451;-62
2022/06/05 13:51:11;;;;;;;2.90;2.80;;;21.20;57.70;;;;;;5012483;28;43578;-61